N371JC RPLC-VHHH
Flight info
| Callsign | N371JC |
|---|---|
| Flight time | 0h 42m |
| Altitude | 43000 |
| Route | RIANO5N RIANO TR25 CAB A461 NOMAN V533 BETTY |
| Aircraft | GLF5/M-SBDE2E3FGHIJ3J4J5P2RWXY/LB1D1 |
Departure
| Time | 2026-05-08 12:00 |
|---|---|
| Airport | Clark International Airport / Clark Air Base (RPLC) |
Arrival
| Time | 2026-05-08 12:43 |
|---|---|
| Airport | Hong Kong International Airport (VHHH) |
| Time | Latitude | Longitude | Altitude | Speed | Heading |
|---|---|---|---|---|---|
| 2026-05-08 11:38 | 15.18855 | 120.54728 | 472 ft | 0 kts | 156° |
| 2026-05-08 11:48 | 15.18841 | 120.54742 | 472 ft | 5 kts | 121° |
| 2026-05-08 11:48 | 15.18843 | 120.54791 | 472 ft | 12 kts | 70° |
| 2026-05-08 11:48 | 15.18883 | 120.54881 | 472 ft | 14 kts | 65° |
| 2026-05-08 11:49 | 15.18926 | 120.54982 | 472 ft | 15 kts | 67° |
| 2026-05-08 11:49 | 15.18968 | 120.55078 | 472 ft | 14 kts | 66° |
| 2026-05-08 11:49 | 15.19013 | 120.55182 | 472 ft | 15 kts | 66° |
| 2026-05-08 11:49 | 15.19057 | 120.55283 | 472 ft | 17 kts | 66° |
| 2026-05-08 11:50 | 15.19115 | 120.55416 | 472 ft | 21 kts | 66° |
| 2026-05-08 11:50 | 15.19120 | 120.55428 | 472 ft | 21 kts | 66° |
| 2026-05-08 11:52 | 15.19143 | 120.55479 | 472 ft | 20 kts | 66° |
| 2026-05-08 11:52 | 15.19201 | 120.55614 | 471 ft | 20 kts | 66° |
| 2026-05-08 11:52 | 15.19250 | 120.55733 | 471 ft | 9 kts | 81° |
| 2026-05-08 11:52 | 15.19201 | 120.55752 | 471 ft | 11 kts | 197° |
| 2026-05-08 11:53 | 15.19085 | 120.55708 | 471 ft | 24 kts | 200° |
| 2026-05-08 11:53 | 15.18979 | 120.55675 | 471 ft | 11 kts | 163° |
| 2026-05-08 11:53 | 15.18927 | 120.55769 | 471 ft | 19 kts | 112° |
| 2026-05-08 11:53 | 15.18901 | 120.55837 | 471 ft | 13 kts | 110° |
| 2026-05-08 11:54 | 15.18886 | 120.55881 | 471 ft | 12 kts | 110° |
| 2026-05-08 11:55 | 15.18919 | 120.55945 | 471 ft | 13 kts | 21° |
| 2026-05-08 11:55 | 15.18937 | 120.55952 | 471 ft | 13 kts | 21° |
| 2026-05-08 11:56 | 15.18977 | 120.55969 | 471 ft | 14 kts | 21° |
| 2026-05-08 11:56 | 15.18983 | 120.55971 | 471 ft | 14 kts | 21° |
| 2026-05-08 11:56 | 15.19043 | 120.55994 | 471 ft | 14 kts | 21° |
| 2026-05-08 11:57 | 15.19051 | 120.55998 | 471 ft | 14 kts | 21° |
| 2026-05-08 11:57 | 15.19096 | 120.56073 | 471 ft | 13 kts | 107° |
| 2026-05-08 11:57 | 15.19088 | 120.56105 | 471 ft | 13 kts | 96° |
| 2026-05-08 11:58 | 15.19109 | 120.56148 | 471 ft | 12 kts | 22° |
| 2026-05-08 11:58 | 15.19194 | 120.56181 | 471 ft | 15 kts | 21° |
| 2026-05-08 11:59 | 15.20095 | 120.56537 | 471 ft | 13 kts | 21° |
| 2026-05-08 11:59 | 15.20155 | 120.56715 | 471 ft | 12 kts | 83° |
| 2026-05-08 11:59 | 15.20147 | 120.56798 | 471 ft | 11 kts | 110° |
| 2026-05-08 11:59 | 15.20089 | 120.56830 | 471 ft | 10 kts | 190° |
| 2026-05-08 12:00 | 15.19989 | 120.56795 | 471 ft | 35 kts | 201° |
| 2026-05-08 12:00 | 15.19441 | 120.56579 | 472 ft | 133 kts | 201° |
| 2026-05-08 12:00 | 15.18500 | 120.56208 | 1281 ft | 147 kts | 200° |
| 2026-05-08 12:00 | 15.17502 | 120.55810 | 1951 ft | 174 kts | 199° |
| 2026-05-08 12:01 | 15.16352 | 120.55354 | 2343 ft | 189 kts | 199° |
| 2026-05-08 12:01 | 15.15117 | 120.54868 | 3214 ft | 197 kts | 199° |
| 2026-05-08 12:01 | 15.13790 | 120.54530 | 4122 ft | 200 kts | 172° |
| 2026-05-08 12:01 | 15.12613 | 120.55149 | 5072 ft | 195 kts | 126° |
| 2026-05-08 12:02 | 15.12083 | 120.56394 | 6092 ft | 193 kts | 105° |
| 2026-05-08 12:02 | 15.11683 | 120.57689 | 7113 ft | 195 kts | 105° |
| 2026-05-08 12:02 | 15.11278 | 120.59026 | 7944 ft | 210 kts | 104° |
| 2026-05-08 12:02 | 15.10794 | 120.60658 | 8359 ft | 249 kts | 105° |
| 2026-05-08 12:03 | 15.10288 | 120.62356 | 9475 ft | 256 kts | 104° |
| 2026-05-08 12:03 | 15.09766 | 120.64125 | 10569 ft | 264 kts | 105° |
| 2026-05-08 12:03 | 15.09232 | 120.65942 | 11647 ft | 270 kts | 105° |
| 2026-05-08 12:03 | 15.08687 | 120.67799 | 12715 ft | 276 kts | 105° |
| 2026-05-08 12:04 | 15.08364 | 120.69743 | 13754 ft | 280 kts | 84° |
| 2026-05-08 12:04 | 15.09052 | 120.71632 | 14552 ft | 296 kts | 55° |
| 2026-05-08 12:04 | 15.09812 | 120.72489 | 14845 ft | 308 kts | 43° |
| 2026-05-08 12:05 | 15.10695 | 120.73297 | 15368 ft | 310 kts | 43° |
| 2026-05-08 12:05 | 15.12295 | 120.74806 | 16362 ft | 318 kts | 44° |
| 2026-05-08 12:05 | 15.13926 | 120.76372 | 17445 ft | 324 kts | 44° |
| 2026-05-08 12:05 | 15.15718 | 120.77821 | 18424 ft | 333 kts | 27° |
| 2026-05-08 12:06 | 15.18005 | 120.78537 | 18740 ft | 364 kts | 11° |
| 2026-05-08 12:06 | 15.20684 | 120.79012 | 19044 ft | 393 kts | 11° |
| 2026-05-08 12:06 | 15.23408 | 120.79517 | 19836 ft | 405 kts | 11° |
| 2026-05-08 12:06 | 15.26231 | 120.80054 | 20791 ft | 412 kts | 11° |
| 2026-05-08 12:07 | 15.29075 | 120.80600 | 21771 ft | 419 kts | 11° |
| 2026-05-08 12:07 | 15.31955 | 120.81124 | 22704 ft | 425 kts | 5° |
| 2026-05-08 12:07 | 15.34900 | 120.80788 | 23644 ft | 430 kts | 345° |
| 2026-05-08 12:07 | 15.37796 | 120.79876 | 24578 ft | 436 kts | 343° |
| 2026-05-08 12:08 | 15.40692 | 120.78942 | 25563 ft | 441 kts | 343° |
| 2026-05-08 12:08 | 15.43634 | 120.77990 | 26510 ft | 445 kts | 343° |
| 2026-05-08 12:08 | 15.46623 | 120.77021 | 27376 ft | 451 kts | 343° |
| 2026-05-08 12:08 | 15.49651 | 120.76039 | 28220 ft | 456 kts | 343° |
| 2026-05-08 12:09 | 15.52725 | 120.75041 | 29043 ft | 461 kts | 343° |
| 2026-05-08 12:09 | 15.71871 | 120.68826 | 31902 ft | 476 kts | 343° |
| 2026-05-08 12:09 | 15.75056 | 120.67787 | 32973 ft | 472 kts | 343° |
| 2026-05-08 12:09 | 15.78205 | 120.66762 | 33914 ft | 471 kts | 342° |
| 2026-05-08 12:10 | 15.81339 | 120.65742 | 35021 ft | 467 kts | 342° |
| 2026-05-08 12:10 | 15.84401 | 120.64744 | 35996 ft | 464 kts | 342° |
| 2026-05-08 12:10 | 15.87566 | 120.63713 | 36882 ft | 463 kts | 342° |
| 2026-05-08 12:10 | 15.90682 | 120.62698 | 37722 ft | 461 kts | 342° |
| 2026-05-08 12:11 | 15.93780 | 120.61688 | 38535 ft | 461 kts | 342° |
| 2026-05-08 12:11 | 15.96844 | 120.60689 | 39438 ft | 458 kts | 342° |
| 2026-05-08 12:11 | 15.99883 | 120.59699 | 39945 ft | 456 kts | 342° |
| 2026-05-08 12:11 | 16.02923 | 120.58706 | 40401 ft | 458 kts | 342° |
| 2026-05-08 12:12 | 16.05958 | 120.57716 | 41468 ft | 453 kts | 342° |
| 2026-05-08 12:12 | 16.08971 | 120.56732 | 42357 ft | 450 kts | 342° |
| 2026-05-08 12:12 | 16.11973 | 120.55752 | 43014 ft | 446 kts | 342° |
| 2026-05-08 12:12 | 16.14421 | 120.54953 | 42866 ft | 446 kts | 342° |
| 2026-05-08 12:13 | 16.20336 | 120.53020 | 42965 ft | 440 kts | 342° |
| 2026-05-08 12:13 | 16.77047 | 120.34117 | 42827 ft | 439 kts | 335° |
| 2026-05-08 12:14 | 16.79528 | 120.32304 | 43018 ft | 438 kts | 315° |
| 2026-05-08 12:14 | 16.81248 | 120.29634 | 42936 ft | 443 kts | 293° |
| 2026-05-08 12:14 | 16.87098 | 120.18101 | 42992 ft | 441 kts | 317° |
| 2026-05-08 12:15 | 16.89598 | 120.16251 | 42895 ft | 440 kts | 329° |
| 2026-05-08 12:15 | 16.92050 | 120.14341 | 42863 ft | 442 kts | 319° |
| 2026-05-08 12:15 | 17.01252 | 120.04733 | 42879 ft | 441 kts | 314° |
| 2026-05-08 12:16 | 17.20370 | 119.83610 | 42877 ft | 439 kts | 315° |
| 2026-05-08 12:16 | 17.87188 | 119.09380 | 42856 ft | 435 kts | 315° |
| 2026-05-08 12:17 | 18.22545 | 118.69878 | 42901 ft | 433 kts | 314° |
| 2026-05-08 12:17 | 18.26658 | 118.65244 | 42898 ft | 436 kts | 315° |
| 2026-05-08 12:18 | 18.34615 | 118.56294 | 42909 ft | 436 kts | 315° |
| 2026-05-08 12:18 | 19.00866 | 117.81256 | 42879 ft | 440 kts | 314° |
| 2026-05-08 12:19 | 19.57370 | 117.16522 | 42944 ft | 438 kts | 314° |
| 2026-05-08 12:19 | 19.81049 | 116.89169 | 42918 ft | 433 kts | 314° |
| 2026-05-08 12:20 | 20.00388 | 116.66737 | 42929 ft | 433 kts | 313° |
| 2026-05-08 12:20 | 20.02173 | 116.64123 | 42912 ft | 435 kts | 296° |
| 2026-05-08 12:20 | 20.03301 | 116.61100 | 42930 ft | 437 kts | 295° |
| 2026-05-08 12:21 | 20.05914 | 116.55308 | 42913 ft | 437 kts | 299° |
| 2026-05-08 12:21 | 20.24568 | 116.17361 | 42985 ft | 436 kts | 298° |
| 2026-05-08 12:22 | 20.36214 | 115.93613 | 42802 ft | 437 kts | 298° |
| 2026-05-08 12:22 | 20.37626 | 115.90695 | 42236 ft | 437 kts | 299° |
| 2026-05-08 12:22 | 20.39017 | 115.87835 | 41766 ft | 433 kts | 299° |
| 2026-05-08 12:22 | 20.40402 | 115.84995 | 41289 ft | 431 kts | 299° |
| 2026-05-08 12:23 | 20.41775 | 115.82179 | 40831 ft | 429 kts | 299° |
| 2026-05-08 12:23 | 20.43151 | 115.79357 | 40374 ft | 429 kts | 299° |
| 2026-05-08 12:23 | 20.44531 | 115.76526 | 39903 ft | 428 kts | 300° |
| 2026-05-08 12:23 | 20.45907 | 115.73701 | 39433 ft | 429 kts | 300° |
| 2026-05-08 12:24 | 20.53972 | 115.57115 | 36910 ft | 427 kts | 300° |
| 2026-05-08 12:24 | 20.56799 | 115.51965 | 35792 ft | 424 kts | 315° |
| 2026-05-08 12:24 | 20.59065 | 115.49964 | 35382 ft | 430 kts | 321° |
| 2026-05-08 12:24 | 20.61339 | 115.47846 | 34868 ft | 437 kts | 317° |
| 2026-05-08 12:25 | 20.63580 | 115.45598 | 34381 ft | 442 kts | 316° |
| 2026-05-08 12:25 | 20.65796 | 115.43314 | 33888 ft | 446 kts | 316° |
| 2026-05-08 12:25 | 20.68012 | 115.41005 | 33396 ft | 448 kts | 315° |
| 2026-05-08 12:25 | 20.70241 | 115.38673 | 32899 ft | 450 kts | 315° |
| 2026-05-08 12:26 | 20.72514 | 115.36293 | 32414 ft | 453 kts | 315° |
| 2026-05-08 12:26 | 20.90659 | 115.17238 | 28464 ft | 451 kts | 315° |
| 2026-05-08 12:26 | 21.11411 | 114.95355 | 23396 ft | 438 kts | 315° |
| 2026-05-08 12:26 | 21.13559 | 114.93089 | 22907 ft | 424 kts | 315° |
| 2026-05-08 12:27 | 21.15667 | 114.90863 | 22439 ft | 417 kts | 315° |
| 2026-05-08 12:27 | 21.17732 | 114.88681 | 21994 ft | 415 kts | 315° |
| 2026-05-08 12:27 | 21.19830 | 114.86463 | 21535 ft | 410 kts | 315° |
| 2026-05-08 12:27 | 21.21864 | 114.84312 | 21083 ft | 407 kts | 315° |
| 2026-05-08 12:28 | 21.47249 | 114.57378 | 15363 ft | 395 kts | 314° |
| 2026-05-08 12:28 | 21.49416 | 114.55663 | 14916 ft | 381 kts | 334° |
| 2026-05-08 12:28 | 21.51966 | 114.54713 | 14513 ft | 376 kts | 341° |
| 2026-05-08 12:28 | 21.57999 | 114.52651 | 13501 ft | 370 kts | 341° |
| 2026-05-08 12:29 | 21.76731 | 114.46613 | 11695 ft | 350 kts | 358° |
| 2026-05-08 12:29 | 21.79143 | 114.46909 | 11693 ft | 342 kts | 4° |
| 2026-05-08 12:29 | 21.81534 | 114.46928 | 11688 ft | 339 kts | 355° |
| 2026-05-08 12:29 | 21.83948 | 114.46682 | 11526 ft | 339 kts | 351° |
| 2026-05-08 12:30 | 21.92254 | 114.45295 | 10294 ft | 336 kts | 349° |
| 2026-05-08 12:30 | 21.94531 | 114.44785 | 9892 ft | 327 kts | 347° |
| 2026-05-08 12:30 | 21.96744 | 114.44305 | 9520 ft | 317 kts | 348° |
| 2026-05-08 12:30 | 21.98907 | 114.43850 | 9162 ft | 309 kts | 348° |
| 2026-05-08 12:31 | 22.00986 | 114.43420 | 8825 ft | 300 kts | 348° |
| 2026-05-08 12:31 | 22.03044 | 114.42996 | 8493 ft | 293 kts | 348° |
| 2026-05-08 12:31 | 22.05048 | 114.42585 | 8168 ft | 288 kts | 348° |
| 2026-05-08 12:31 | 22.06948 | 114.42196 | 7863 ft | 286 kts | 348° |
| 2026-05-08 12:32 | 22.08920 | 114.41792 | 7545 ft | 284 kts | 348° |
| 2026-05-08 12:32 | 22.10864 | 114.41396 | 7231 ft | 282 kts | 349° |
| 2026-05-08 12:32 | 22.17579 | 114.40015 | 6162 ft | 280 kts | 349° |
| 2026-05-08 12:32 | 22.19495 | 114.39529 | 5956 ft | 273 kts | 341° |
| 2026-05-08 12:33 | 22.21302 | 114.38864 | 5954 ft | 274 kts | 341° |
| 2026-05-08 12:33 | 22.23134 | 114.38190 | 5951 ft | 275 kts | 341° |
| 2026-05-08 12:33 | 22.24958 | 114.37517 | 5963 ft | 272 kts | 340° |
| 2026-05-08 12:33 | 22.26667 | 114.36889 | 5986 ft | 247 kts | 341° |
| 2026-05-08 12:34 | 22.28207 | 114.36322 | 5914 ft | 223 kts | 340° |
| 2026-05-08 12:34 | 22.29619 | 114.35802 | 5931 ft | 207 kts | 340° |
| 2026-05-08 12:34 | 22.30970 | 114.35304 | 5944 ft | 199 kts | 340° |
| 2026-05-08 12:34 | 22.32279 | 114.34821 | 5954 ft | 198 kts | 340° |
| 2026-05-08 12:35 | 22.33747 | 114.34277 | 5962 ft | 248 kts | 340° |
| 2026-05-08 12:35 | 22.35465 | 114.33643 | 5975 ft | 269 kts | 340° |
| 2026-05-08 12:35 | 22.37279 | 114.32975 | 5964 ft | 275 kts | 340° |
| 2026-05-08 12:35 | 22.39073 | 114.32169 | 5949 ft | 274 kts | 324° |
| 2026-05-08 12:36 | 22.40244 | 114.30582 | 5968 ft | 271 kts | 291° |
| 2026-05-08 12:36 | 22.40702 | 114.28578 | 5989 ft | 275 kts | 281° |
| 2026-05-08 12:36 | 22.41073 | 114.26585 | 5946 ft | 260 kts | 281° |
| 2026-05-08 12:36 | 22.41903 | 114.22051 | 5398 ft | 252 kts | 281° |
| 2026-05-08 12:37 | 22.42275 | 114.19651 | 5018 ft | 249 kts | 269° |
| 2026-05-08 12:37 | 22.41827 | 114.17871 | 4764 ft | 244 kts | 249° |
| 2026-05-08 12:37 | 22.41218 | 114.16172 | 4480 ft | 241 kts | 250° |
| 2026-05-08 12:37 | 22.40640 | 114.14487 | 4211 ft | 238 kts | 251° |
| 2026-05-08 12:38 | 22.40081 | 114.12807 | 3912 ft | 233 kts | 251° |
| 2026-05-08 12:38 | 22.39563 | 114.11225 | 3587 ft | 211 kts | 251° |
| 2026-05-08 12:38 | 22.39094 | 114.09758 | 3047 ft | 204 kts | 252° |
| 2026-05-08 12:38 | 22.38634 | 114.08286 | 2677 ft | 210 kts | 251° |
| 2026-05-08 12:39 | 22.38162 | 114.06805 | 2544 ft | 204 kts | 251° |
| 2026-05-08 12:39 | 22.37705 | 114.05381 | 2535 ft | 196 kts | 252° |
| 2026-05-08 12:39 | 22.37257 | 114.03990 | 2416 ft | 197 kts | 251° |
| 2026-05-08 12:39 | 22.36797 | 114.02563 | 2160 ft | 199 kts | 251° |
| 2026-05-08 12:40 | 22.36341 | 114.01151 | 1893 ft | 193 kts | 251° |
| 2026-05-08 12:40 | 22.35921 | 113.99850 | 1631 ft | 178 kts | 252° |
| 2026-05-08 12:40 | 22.35519 | 113.98605 | 1402 ft | 173 kts | 252° |
| 2026-05-08 12:40 | 22.35125 | 113.97387 | 1185 ft | 174 kts | 251° |
| 2026-05-08 12:41 | 22.34750 | 113.96230 | 984 ft | 151 kts | 251° |
| 2026-05-08 12:41 | 22.34422 | 113.95216 | 779 ft | 135 kts | 251° |
| 2026-05-08 12:41 | 22.34115 | 113.94282 | 580 ft | 131 kts | 251° |
| 2026-05-08 12:41 | 22.33814 | 113.93359 | 408 ft | 129 kts | 251° |
| 2026-05-08 12:42 | 22.33520 | 113.92451 | 253 ft | 129 kts | 251° |
| 2026-05-08 12:42 | 22.33227 | 113.91537 | 94 ft | 129 kts | 251° |
| 2026-05-08 12:42 | 22.32940 | 113.90655 | 10 ft | 113 kts | 251° |
| 2026-05-08 12:42 | 22.32728 | 113.89995 | 9 ft | 86 kts | 251° |
| 2026-05-08 12:43 | 22.32588 | 113.89640 | 9 ft | 33 kts | 232° |
| 2026-05-08 12:43 | 22.32455 | 113.89521 | 9 ft | 17 kts | 179° |
| 2026-05-08 12:43 | 22.32428 | 113.89623 | 9 ft | 16 kts | 71° |